Time;durP1;ratioP1;P1;durP2;ratioP2;P2;SDS_P1;SDS_P2;PMS_P1;PMS_P2;Temp;Humidity;BMP_temperature;BMP_pressure;BME280_temperature;BME280_humidity;BME280_pressure;Samples;Min_cycle;Max_cycle;Signal;HPM_P1;HPM_P2
2023/12/06 00:00:33;;;;;;;38.77;24.77;;;;;;;-1.83;100.00;97469.47;6301374;28;20360;-40
2023/12/06 00:03:36;;;;;;;37.63;23.60;;;;;;;-1.78;100.00;97471.56;6301133;28;20281;-40
2023/12/06 00:06:38;;;;;;;42.77;24.60;;;;;;;-1.79;100.00;97475.97;6291747;28;20244;-40
2023/12/06 00:09:40;;;;;;;40.20;23.90;;;;;;;-1.77;100.00;97478.41;6315359;28;20217;-40
2023/12/06 00:12:42;;;;;;;41.67;23.87;;;;;;;-1.78;100.00;97466.34;6302611;28;20203;-41
2023/12/06 00:15:44;;;;;;;42.03;24.93;;;;;;;-1.77;100.00;97463.59;6295373;28;20197;-42
2023/12/06 00:18:48;;;;;;;34.80;21.93;;;;;;;-1.75;100.00;97463.41;6298168;28;20709;-43
2023/12/06 00:21:50;;;;;;;35.77;22.00;;;;;;;-1.76;100.00;97465.22;6291674;28;20658;-41
2023/12/06 00:24:53;;;;;;;39.23;24.07;;;;;;;-1.74;100.00;97470.25;6302552;28;20222;-41
2023/12/06 00:27:55;;;;;;;43.20;26.63;;;;;;;-1.74;100.00;97478.09;6303350;28;20202;-41
2023/12/06 00:30:58;;;;;;;32.63;20.63;;;;;;;-1.85;100.00;97448.75;6308806;28;20225;-41
2023/12/06 00:34:00;;;;;;;39.53;23.87;;;;;;;-1.76;100.00;97467.00;6308779;28;20572;-41
2023/12/06 00:37:02;;;;;;;32.90;20.37;;;;;;;-2.00;100.00;97429.56;6293194;28;20703;-39
2023/12/06 00:40:05;;;;;;;35.13;20.87;;;;;;;-1.75;100.00;97463.41;6312649;28;20809;-40
2023/12/06 00:43:07;;;;;;;35.03;22.77;;;;;;;-1.74;100.00;97467.66;6299807;28;20201;-40
2023/12/06 00:46:09;;;;;;;37.37;22.90;;;;;;;-1.85;100.00;97453.97;6306671;28;20190;-40
2023/12/06 00:49:12;;;;;;;35.77;21.67;;;;;;;-1.73;100.00;97469.25;6304768;28;20214;-40
2023/12/06 00:52:14;;;;;;;38.27;22.43;;;;;;;-1.98;100.00;97430.19;6298063;28;20226;-40
2023/12/06 00:55:16;;;;;;;37.40;23.50;;;;;;;-1.78;100.00;97456.72;6302279;28;20201;-47
2023/12/06 00:58:18;;;;;;;33.50;20.63;;;;;;;-1.72;100.00;97465.69;6294904;28;20186;-47
2023/12/06 01:01:21;;;;;;;42.10;25.13;;;;;;;-1.75;100.00;97468.63;6307684;28;20312;-47
2023/12/06 01:04:24;;;;;;;34.23;22.47;;;;;;;-1.75;100.00;97468.63;6305960;28;20695;-46
2023/12/06 01:07:27;;;;;;;41.73;23.17;;;;;;;-1.75;100.00;97458.19;6305911;28;20578;-47
2023/12/06 01:10:30;;;;;;;34.37;20.80;;;;;;;-1.74;100.00;97457.19;6287303;28;20289;-48
2023/12/06 01:13:32;;;;;;;35.40;22.37;;;;;;;-1.73;100.00;97456.22;6306720;28;20182;-49
2023/12/06 01:16:34;;;;;;;38.70;23.93;;;;;;;-1.78;100.00;97453.28;6305619;28;20214;-47
2023/12/06 01:19:36;;;;;;;40.57;24.40;;;;;;;-1.73;100.00;97471.88;6303971;28;20266;-47
2023/12/06 01:22:38;;;;;;;40.80;24.67;;;;;;;-1.74;100.00;97472.88;6301745;28;20661;-48
2023/12/06 01:25:40;;;;;;;39.97;24.80;;;;;;;-1.76;100.00;97461.78;6299533;28;20224;-47
2023/12/06 01:28:42;;;;;;;43.47;25.87;;;;;;;-1.76;100.00;97473.03;6298209;28;20611;-46
2023/12/06 01:31:44;;;;;;;39.03;23.63;;;;;;;-1.88;100.00;97459.53;6299816;28;20289;-46
2023/12/06 01:34:47;;;;;;;46.20;27.27;;;;;;;-1.78;100.00;97463.75;6300354;28;20681;-48
2023/12/06 01:37:49;;;;;;;44.00;24.47;;;;;;;-1.79;100.00;97473.38;6306147;28;20741;-49
2023/12/06 01:40:51;;;;;;;39.67;23.67;;;;;;;-1.77;100.00;97467.97;6301469;28;20677;-49
2023/12/06 01:43:53;;;;;;;43.93;24.73;;;;;;;-1.77;100.00;97466.19;6301557;28;20202;-51
2023/12/06 01:46:55;;;;;;;42.63;25.47;;;;;;;-1.99;100.00;97431.19;6301210;28;20213;-48
2023/12/06 01:50:01;;;;;;;46.73;27.53;;;;;;;-1.77;100.00;97466.19;6301018;28;20607;-46
2023/12/06 01:53:05;;;;;;;44.57;25.73;;;;;;;-1.77;100.00;97460.13;6299976;28;20190;-46
2023/12/06 01:56:09;;;;;;;42.87;26.30;;;;;;;-1.76;100.00;97456.56;6304068;28;20201;-49
2023/12/06 01:59:11;;;;;;;40.37;24.40;;;;;;;-1.76;100.00;97453.97;6301407;28;20197;-49
2023/12/06 02:02:13;;;;;;;40.60;25.33;;;;;;;-1.75;100.00;97453.78;6303351;28;20194;-50
2023/12/06 02:05:16;;;;;;;37.13;23.20;;;;;;;-1.89;100.00;97423.97;6300303;28;20564;-48
2023/12/06 02:08:19;;;;;;;40.87;23.63;;;;;;;-1.72;100.00;97447.41;6298785;28;20210;-49
2023/12/06 02:11:21;;;;;;;43.23;27.77;;;;;;;-1.74;100.00;97451.97;6297465;28;20197;-49
2023/12/06 02:14:24;;;;;;;53.53;29.97;;;;;;;-1.79;100.00;97451.66;6290617;28;20199;-47
2023/12/06 02:17:27;;;;;;;50.97;30.30;;;;;;;-1.78;100.00;97448.88;6300029;28;20194;-49
2023/12/06 02:20:31;;;;;;;53.87;31.90;;;;;;;-1.78;100.00;97450.69;6302214;28;20650;-45
2023/12/06 02:23:37;;;;;;;51.93;30.07;;;;;;;-1.79;100.00;97441.22;6306159;28;20581;-49
2023/12/06 02:26:39;;;;;;;52.47;29.93;;;;;;;-1.79;100.00;97449.06;6307173;28;20233;-47
2023/12/06 02:29:42;;;;;;;46.20;28.37;;;;;;;-1.79;100.00;97451.66;6306897;28;20316;-47
2023/12/06 02:32:44;;;;;;;51.97;29.67;;;;;;;-1.79;100.00;97459.50;6305886;28;20229;-48
2023/12/06 02:35:50;;;;;;;45.73;27.67;;;;;;;-1.78;100.00;97445.47;6308031;28;20193;-51
2023/12/06 02:38:53;;;;;;;57.17;32.33;;;;;;;-1.77;100.00;97444.47;6309215;28;20193;-47
2023/12/06 02:41:55;;;;;;;47.60;29.27;;;;;;;-1.77;100.00;97445.31;6310446;28;20665;-48
2023/12/06 02:44:57;;;;;;;54.40;30.20;;;;;;;-1.77;100.00;97439.25;6311366;28;20617;-48
2023/12/06 02:47:59;;;;;;;46.63;28.07;;;;;;;-1.76;100.00;97443.50;6306994;28;20195;-48
2023/12/06 02:51:02;;;;;;;37.60;23.20;;;;;;;-1.76;100.00;97441.72;6308332;28;20241;-48
2023/12/06 02:54:04;;;;;;;46.77;27.07;;;;;;;-1.76;100.00;97436.50;6297820;28;20355;-50
2023/12/06 02:57:06;;;;;;;42.93;25.77;;;;;;;-1.75;100.00;97435.50;6290513;28;20205;-46
2023/12/06 03:00:10;;;;;;;43.13;24.90;;;;;;;-1.71;100.00;97430.75;6300558;28;20232;-49
2023/12/06 03:03:12;;;;;;;49.67;29.37;;;;;;;-1.70;100.00;97429.78;6302725;28;20190;-48
2023/12/06 03:06:14;;;;;;;38.10;23.87;;;;;;;-1.71;100.00;97436.78;6303056;28;20272;-54
2023/12/06 03:09:16;;;;;;;39.83;24.73;;;;;;;-1.71;100.00;97438.59;6305186;28;20225;-49
2023/12/06 03:12:19;;;;;;;47.37;27.87;;;;;;;-1.71;100.00;97443.81;6306088;28;20675;-49
2023/12/06 03:15:21;;;;;;;41.43;23.63;;;;;;;-1.72;100.00;97442.19;6300075;28;20296;-46
2023/12/06 03:18:23;;;;;;;45.03;27.27;;;;;;;-1.71;100.00;97449.03;6306634;28;20190;-48
2023/12/06 03:21:25;;;;;;;49.80;29.30;;;;;;;-1.72;100.00;97447.41;6293314;28;20239;-46
2023/12/06 03:24:27;;;;;;;44.13;25.93;;;;;;;-1.73;100.00;97451.00;6298974;28;20658;-46
2023/12/06 03:27:30;;;;;;;50.30;27.03;;;;;;;-1.74;100.00;97444.16;6295713;28;20552;-48
2023/12/06 03:30:32;;;;;;;49.97;29.70;;;;;;;-1.73;100.00;97451.78;6296012;28;20240;-50
2023/12/06 03:33:38;;;;;;;58.27;32.27;;;;;;;-1.91;100.00;97414.69;6298339;28;20635;-51
2023/12/06 03:36:40;;;;;;;57.27;33.53;;;;;;;-1.77;100.00;97445.31;6296629;28;20195;-50
2023/12/06 03:39:43;;;;;;;53.30;31.50;;;;;;;-1.77;100.00;97449.69;6300173;28;20272;-50
2023/12/06 03:42:45;;;;;;;55.30;30.03;;;;;;;-1.79;100.00;97442.03;6300486;28;20377;-50
2023/12/06 03:45:48;;;;;;;45.13;27.00;;;;;;;-1.75;100.00;97451.16;6300181;28;20672;-47
2023/12/06 03:48:50;;;;;;;57.87;32.10;;;;;;;-1.74;100.00;97454.59;6300312;28;20203;-47
2023/12/06 03:51:53;;;;;;;41.43;23.87;;;;;;;-1.75;100.00;97453.78;6301537;28;20198;-48
2023/12/06 03:54:55;;;;;;;44.17;25.30;;;;;;;-1.73;100.00;97456.22;6301278;28;20811;-47
2023/12/06 03:57:57;;;;;;;51.97;29.00;;;;;;;-1.75;100.00;97450.34;6301301;28;20680;-44
2023/12/06 04:00:59;;;;;;;50.87;29.50;;;;;;;-1.73;100.00;97445.75;6299334;28;20202;-47
2023/12/06 04:04:02;;;;;;;51.97;29.60;;;;;;;-1.80;100.00;97440.41;6295776;28;20203;-46
2023/12/06 04:07:04;;;;;;;51.93;29.33;;;;;;;-1.75;100.00;97451.16;6297809;28;20197;-47
2023/12/06 04:10:06;;;;;;;46.87;28.60;;;;;;;-1.70;100.00;97458.50;6297993;28;20741;-47
2023/12/06 04:13:09;;;;;;;49.23;30.20;;;;;;;-1.71;100.00;97452.47;6296883;28;20280;-49
2023/12/06 04:16:11;;;;;;;46.90;27.37;;;;;;;-1.73;100.00;97457.03;6291692;28;20736;-49
2023/12/06 04:19:13;;;;;;;49.70;30.50;;;;;;;-1.72;100.00;97455.25;6292460;28;20563;-48
2023/12/06 04:22:15;;;;;;;51.57;29.10;;;;;;;-1.71;100.00;97460.28;6305840;28;20190;-50
2023/12/06 04:25:17;;;;;;;48.20;27.13;;;;;;;-1.69;100.00;97458.31;6302014;28;20231;-48
2023/12/06 04:28:20;;;;;;;47.23;28.90;;;;;;;-1.69;100.00;97454.91;6303604;28;20675;-46
2023/12/06 04:31:22;;;;;;;46.23;25.80;;;;;;;-1.90;100.00;97406.69;6304864;28;20767;-48
2023/12/06 04:34:24;;;;;;;46.50;27.17;;;;;;;-1.65;100.00;97445.75;6301178;28;20226;-50
2023/12/06 04:37:27;;;;;;;41.60;25.10;;;;;;;-1.66;100.00;97442.31;6308814;28;20780;-48
2023/12/06 04:40:29;;;;;;;47.73;29.27;;;;;;;-1.66;100.00;97444.94;6307536;28;20190;-47
2023/12/06 04:43:31;;;;;;;43.20;25.83;;;;;;;-1.67;100.00;97440.69;6295697;28;20224;-48
2023/12/06 04:46:33;;;;;;;45.20;26.50;;;;;;;-1.68;100.00;97449.50;6305597;28;20601;-50
2023/12/06 04:49:36;;;;;;;43.90;26.23;;;;;;;-1.67;100.00;97451.16;6283171;28;20704;-46
2023/12/06 04:52:38;;;;;;;31.13;19.83;;;;;;;-1.68;100.00;97446.88;6293664;28;20206;-45
2023/12/06 04:55:40;;;;;;;36.03;21.57;;;;;;;-1.66;100.00;97446.72;6295704;28;20275;-46
2023/12/06 04:58:42;;;;;;;47.10;27.50;;;;;;;-1.65;100.00;97441.31;6292597;28;20588;-51
2023/12/06 05:01:44;;;;;;;43.60;25.17;;;;;;;-1.64;100.00;97439.53;6299934;28;20186;-46
2023/12/06 05:04:46;;;;;;;38.73;24.60;;;;;;;-1.66;100.00;97444.13;6302245;28;20191;-48
2023/12/06 05:07:48;;;;;;;41.93;25.97;;;;;;;-1.66;100.00;97459.78;6302764;28;20718;-49
2023/12/06 05:10:50;;;;;;;42.80;25.83;;;;;;;-1.67;100.00;97456.38;6302869;28;20670;-46
2023/12/06 05:13:52;;;;;;;45.30;27.47;;;;;;;-1.66;100.00;97450.16;6307899;28;20197;-45
2023/12/06 05:16:54;;;;;;;44.97;27.53;;;;;;;-1.65;100.00;97453.56;6302071;28;20186;-48
2023/12/06 05:19:57;;;;;;;43.50;25.57;;;;;;;-1.67;100.00;97445.09;6301373;28;20199;-48
2023/12/06 05:22:59;;;;;;;46.83;29.13;;;;;;;-1.66;100.00;97449.34;6308793;28;20767;-50
2023/12/06 05:26:01;;;;;;;41.43;26.00;;;;;;;-1.66;100.00;97449.34;6304496;28;20194;-48
2023/12/06 05:29:03;;;;;;;49.67;28.97;;;;;;;-1.66;100.00;97458.00;6308634;28;20589;-51
2023/12/06 05:32:06;;;;;;;48.20;26.73;;;;;;;-1.67;100.00;97450.34;6302011;28;20298;-47
2023/12/06 05:35:08;;;;;;;48.43;26.10;;;;;;;-1.67;100.00;97445.91;6300171;28;20906;-48
2023/12/06 05:38:10;;;;;;;41.77;24.97;;;;;;;-1.65;100.00;97453.56;6301920;28;20190;-51
2023/12/06 05:41:12;;;;;;;49.23;28.80;;;;;;;-1.65;100.00;97466.63;6304797;28;20292;-50
2023/12/06 05:44:14;;;;;;;50.20;29.17;;;;;;;-1.66;100.00;97458.00;6305778;28;20776;-46
2023/12/06 05:47:16;;;;;;;59.53;32.93;;;;;;;-1.65;100.00;97464.03;6304814;28;20608;-51
2023/12/06 05:50:18;;;;;;;52.27;31.43;;;;;;;-1.67;100.00;97455.56;6297560;28;20670;-48
2023/12/06 05:53:22;;;;;;;47.47;27.87;;;;;;;-1.67;100.00;97453.75;6306204;28;20672;-47
2023/12/06 05:56:25;;;;;;;49.23;28.87;;;;;;;-1.67;100.00;97450.34;6305040;28;20199;-46
2023/12/06 05:59:27;;;;;;;48.07;27.43;;;;;;;-1.66;100.00;97451.97;6302614;28;20676;-46
2023/12/06 06:02:29;;;;;;;57.37;31.53;;;;;;;-1.68;100.00;97456.50;6300464;28;20689;-50
2023/12/06 06:05:33;;;;;;;51.40;29.87;;;;;;;-1.69;100.00;97452.28;6297512;28;20202;-50
2023/12/06 06:08:35;;;;;;;54.30;32.23;;;;;;;-1.69;100.00;97450.47;6298736;28;20251;-46
2023/12/06 06:11:38;;;;;;;56.33;33.27;;;;;;;-1.69;100.00;97455.69;6297438;28;20199;-49
2023/12/06 06:14:40;;;;;;;49.30;29.40;;;;;;;-1.69;100.00;97447.88;6287738;28;20236;-52
2023/12/06 06:17:43;;;;;;;42.93;27.07;;;;;;;-1.68;100.00;97443.47;6300057;28;20312;-49
2023/12/06 06:20:45;;;;;;;48.37;27.93;;;;;;;-1.68;100.00;97446.88;6306923;28;20657;-45
2023/12/06 06:23:47;;;;;;;49.23;27.40;;;;;;;-1.67;100.00;97453.75;6305086;28;20203;-48
2023/12/06 06:26:49;;;;;;;47.97;28.80;;;;;;;-1.67;100.00;97450.34;6298704;28;20194;-50
2023/12/06 06:29:51;;;;;;;47.53;27.80;;;;;;;-1.70;100.00;97443.63;6296704;28;20693;-53
2023/12/06 06:32:53;;;;;;;47.03;26.83;;;;;;;-1.67;100.00;97450.34;6303677;28;20743;-54
2023/12/06 06:35:56;;;;;;;51.47;28.80;;;;;;;-1.80;100.00;97431.78;6293843;28;20194;-47
2023/12/06 06:38:58;;;;;;;44.07;26.03;;;;;;;-1.64;100.00;97463.03;6308351;28;20205;-50
2023/12/06 06:42:00;;;;;;;45.50;26.77;;;;;;;-1.62;100.00;97458.47;6311234;28;20304;-49
2023/12/06 06:45:02;;;;;;;45.20;26.47;;;;;;;-1.61;100.00;97465.31;6315607;28;20202;-51
2023/12/06 06:48:05;;;;;;;40.57;24.63;;;;;;;-1.66;100.00;97459.78;6303558;28;20210;-47
2023/12/06 06:51:09;;;;;;;39.47;23.63;;;;;;;-1.57;100.00;97466.59;6295867;28;20203;-49
2023/12/06 06:54:11;;;;;;;45.80;28.10;;;;;;;-1.58;100.00;97465.78;6302717;28;20256;-47
2023/12/06 06:57:13;;;;;;;37.90;23.80;;;;;;;-1.56;100.00;97468.22;6302122;28;20637;-49
2023/12/06 07:00:16;;;;;;;41.53;24.70;;;;;;;-1.57;100.00;97464.81;6300836;28;20320;-49
2023/12/06 07:03:33;;;;;;;41.40;22.90;;;;;;;-1.55;100.00;97475.06;6304336;28;20202;-49
2023/12/06 07:06:35;;;;;;;42.53;25.70;;;;;;;-1.53;100.00;97470.47;6303384;28;20277;-49
2023/12/06 07:09:37;;;;;;;43.83;24.97;;;;;;;-1.51;100.00;97470.34;6305533;28;20206;-48
2023/12/06 07:12:42;;;;;;;44.83;27.30;;;;;;;-1.48;100.00;97483.03;6306847;28;20198;-50
2023/12/06 07:15:46;;;;;;;45.97;27.83;;;;;;;-1.48;100.00;97481.22;6305725;28;20563;-50
2023/12/06 07:18:49;;;;;;;46.00;25.67;;;;;;;-1.47;100.00;97482.88;6309740;28;20579;-48
2023/12/06 07:21:52;;;;;;;42.33;24.80;;;;;;;-1.48;100.00;97478.63;6306374;28;20185;-50
2023/12/06 07:24:54;;;;;;;42.57;26.23;;;;;;;-1.46;100.00;97481.91;6295976;28;20575;-51
2023/12/06 07:27:57;;;;;;;39.53;25.57;;;;;;;-1.45;100.00;97483.50;6293707;28;20661;-49
2023/12/06 07:30:59;;;;;;;45.17;27.60;;;;;;;-1.44;100.00;97472.06;6297349;28;20261;-51
2023/12/06 07:34:02;;;;;;;47.57;27.63;;;;;;;-1.42;100.00;97480.56;6298336;28;20828;-48
2023/12/06 07:37:14;;;;;;;49.13;27.70;;;;;;;-1.43;100.00;97465.03;6302921;28;20218;-48
2023/12/06 07:40:16;;;;;;;42.60;25.97;;;;;;;-1.39;100.00;97466.34;6300965;28;20202;-47
2023/12/06 07:43:19;;;;;;;46.13;27.40;;;;;;;-1.44;100.00;97458.19;6301141;28;20202;-48
2023/12/06 07:46:21;;;;;;;46.13;27.43;;;;;;;-1.35;100.00;97475.47;6301833;28;20277;-49
2023/12/06 07:49:23;;;;;;;49.53;30.77;;;;;;;-1.34;100.00;97479.69;6301707;28;20282;-50
2023/12/06 07:52:26;;;;;;;54.23;31.80;;;;;;;-1.34;100.00;97477.09;6303782;28;20206;-50
2023/12/06 07:55:28;;;;;;;50.97;30.33;;;;;;;-1.33;100.00;97474.31;6296125;28;20193;-49
2023/12/06 07:58:30;;;;;;;47.73;27.63;;;;;;;-1.39;100.00;97469.75;6301583;28;20275;-46
2023/12/06 08:01:32;;;;;;;50.50;29.70;;;;;;;-1.31;100.00;97480.19;6297203;28;20728;-50
2023/12/06 08:04:34;;;;;;;46.93;27.93;;;;;;;-1.30;100.00;97483.59;6295429;28;20622;-48
2023/12/06 08:07:39;;;;;;;57.90;33.00;;;;;;;-1.27;100.00;97478.03;6299163;28;20850;-52
2023/12/06 08:10:43;;;;;;;55.70;31.47;;;;;;;-1.28;100.00;97479.03;6294673;28;20210;-50
2023/12/06 08:13:48;;;;;;;63.83;36.10;;;;;;;-1.25;100.00;97480.47;6297482;28;20197;-46
2023/12/06 08:16:50;;;;;;;62.00;34.30;;;;;;;-1.24;100.00;97482.91;6295986;28;20205;-48
2023/12/06 08:19:52;;;;;;;54.37;33.50;;;;;;;-1.24;100.00;97484.72;6297297;28;20193;-50
2023/12/06 08:22:57;;;;;;;49.47;30.73;;;;;;;-1.21;100.00;97489.59;6299057;28;20574;-51
2023/12/06 08:25:59;;;;;;;54.70;33.80;;;;;;;-1.20;100.00;97486.81;6288038;28;20206;-50
2023/12/06 08:29:01;;;;;;;49.00;32.17;;;;;;;-1.22;100.00;97485.38;6291875;28;20571;-48
2023/12/06 08:32:03;;;;;;;48.57;30.13;;;;;;;-1.20;100.00;97478.16;6298130;28;20623;-50
2023/12/06 08:35:06;;;;;;;53.30;32.10;;;;;;;-1.13;100.00;97479.94;6299222;28;20222;-49
2023/12/06 08:38:08;;;;;;;60.40;34.73;;;;;;;-1.08;100.00;97484.63;6295068;28;20358;-48
2023/12/06 08:41:10;;;;;;;65.60;35.33;;;;;;;-1.10;100.00;97489.22;6297867;28;20198;-47
2023/12/06 08:44:12;;;;;;;59.20;35.13;;;;;;;-1.06;100.00;97493.91;6307837;28;20209;-49
2023/12/06 08:47:14;;;;;;;57.43;34.97;;;;;;;-0.98;100.00;97485.22;6314301;28;20198;-51
2023/12/06 08:50:17;;;;;;;55.53;33.07;;;;;;;-0.90;100.00;97484.34;6296506;28;20210;-52
2023/12/06 08:53:19;;;;;;;59.10;34.83;;;;;;;-0.82;100.00;97492.94;6306334;28;20560;-49
2023/12/06 08:56:21;;;;;;;55.43;33.40;;;;;;;-0.75;100.00;97492.25;6304990;28;20194;-49
2023/12/06 08:59:23;;;;;;;57.33;34.10;;;;;;;-0.93;100.00;97450.72;6308269;28;20203;-50
2023/12/06 09:02:25;;;;;;;58.57;34.03;;;;;;;-0.62;100.00;97497.72;6306814;28;20600;-49
2023/12/06 09:05:29;;;;;;;54.37;32.70;;;;;;;-0.59;100.00;97487.72;6306350;28;20245;-50
2023/12/06 09:08:32;;;;;;;55.30;33.53;;;;;;;-0.50;100.00;97496.28;6308020;28;20281;-48
2023/12/06 09:11:34;;;;;;;60.00;33.53;;;;;;;-0.42;100.00;97496.22;6307396;28;20202;-49
2023/12/06 09:14:36;;;;;;;59.07;33.17;;;;;;;-0.37;100.00;97495.72;6310202;28;20685;-49
2023/12/06 09:17:38;;;;;;;59.73;33.67;;;;;;;-0.54;100.00;97477.53;6311595;28;20194;-49
2023/12/06 09:20:42;;;;;;;55.30;32.70;;;;;;;-0.37;100.00;97501.75;6312570;28;20713;-47
2023/12/06 09:23:45;;;;;;;54.63;32.47;;;;;;;-0.44;100.00;97482.53;6310266;28;20864;-51
2023/12/06 09:26:47;;;;;;;54.50;32.50;;;;;;;-0.28;100.00;97502.50;6299223;28;20323;-52
2023/12/06 09:29:49;;;;;;;52.77;32.40;;;;;;;-0.22;100.00;97499.16;6301555;28;20713;-50
2023/12/06 09:32:51;;;;;;;57.47;33.10;;;;;;;-0.13;100.00;97494.69;6301970;28;20356;-50
2023/12/06 09:35:53;;;;;;;51.77;32.50;;;;;;;-0.27;100.00;97463.06;6306185;28;20202;-50
2023/12/06 09:38:59;;;;;;;51.10;32.23;;;;;;;-0.08;100.00;97487.09;6301082;28;20362;-52
2023/12/06 09:42:02;;;;;;;60.73;34.30;;;;;;;0.03;100.00;97501.53;6303043;28;20533;-49
2023/12/06 09:45:05;;;;;;;58.87;33.20;;;;;;;-0.03;100.00;97497.84;6305712;28;20190;-48
2023/12/06 09:48:07;;;;;;;53.30;33.07;;;;;;;0.03;100.00;97498.94;6307586;28;20570;-50
2023/12/06 09:51:11;;;;;;;54.63;31.87;;;;;;;0.05;100.00;97502.16;6305479;28;20343;-49
2023/12/06 09:54:13;;;;;;;54.63;31.83;;;;;;;0.07;100.00;97498.41;6305853;28;20202;-49
2023/12/06 09:57:16;;;;;;;54.83;31.40;;;;;;;0.16;100.00;97494.69;6306091;28;20859;-48
2023/12/06 10:00:18;;;;;;;49.67;32.00;;;;;;;0.11;100.00;97463.00;6305321;28;20182;-48
2023/12/06 10:03:24;;;;;;;51.83;31.83;;;;;;;0.32;100.00;97487.66;6303631;28;20185;-51
2023/12/06 10:06:26;;;;;;;51.37;31.43;;;;;;;0.39;100.00;97485.91;6304786;28;20191;-49
2023/12/06 10:09:28;;;;;;;57.00;31.43;;;;;;;0.44;100.00;97491.41;6295018;28;20202;-52
2023/12/06 10:12:31;;;;;;;56.77;31.47;;;;;;;0.47;100.00;97491.88;6295225;28;20653;-49
2023/12/06 10:15:42;;;;;;;49.73;30.43;;;;;;;0.40;100.00;97477.09;6296554;28;20678;-51
2023/12/06 10:18:48;;;;;;;50.23;30.33;;;;;;;0.56;100.00;97483.94;6289427;28;20222;-49
2023/12/06 10:21:51;;;;;;;44.03;27.73;;;;;;;0.66;100.00;97490.50;6303228;28;20203;-50
2023/12/06 10:24:56;;;;;;;43.83;26.73;;;;;;;0.69;100.00;97479.66;6298549;28;20211;-50
2023/12/06 10:28:01;;;;;;;44.87;27.97;;;;;;;0.76;100.00;97477.09;6302224;28;20272;-47
2023/12/06 10:31:04;;;;;;;48.30;28.27;;;;;;;0.72;100.00;97479.28;6299225;28;20609;-48
2023/12/06 10:34:07;;;;;;;46.80;27.87;;;;;;;0.78;100.00;97478.53;6300051;28;20731;-50
2023/12/06 10:37:12;;;;;;;50.23;27.53;;;;;;;0.72;100.00;97470.59;6302552;28;20729;-48
2023/12/06 10:40:14;;;;;;;43.50;26.73;;;;;;;0.70;100.00;97465.56;6301323;28;20186;-49
2023/12/06 10:43:18;;;;;;;41.03;26.57;;;;;;;0.65;100.00;97470.53;6279476;28;20209;-50
2023/12/06 10:46:22;;;;;;;44.97;27.80;;;;;;;0.62;100.00;97470.88;6296110;28;20210;-48
2023/12/06 10:49:28;;;;;;;45.83;28.33;;;;;;;0.71;100.00;97468.97;6296547;28;20903;-48
2023/12/06 10:52:32;;;;;;;41.17;26.47;;;;;;;0.74;100.00;97460.75;6297656;28;20256;-52
2023/12/06 10:55:37;;;;;;;45.03;27.57;;;;;;;0.84;100.00;97452.56;6305072;28;20696;-47
2023/12/06 10:58:39;;;;;;;40.07;24.37;;;;;;;0.94;100.00;97448.66;6303566;28;20198;-48
2023/12/06 11:01:42;;;;;;;43.90;26.23;;;;;;;0.87;100.00;97446.97;6305409;28;20296;-49
2023/12/06 11:04:50;;;;;;;46.23;28.57;;;;;;;0.88;100.00;97459.88;6303087;28;20218;-50
2023/12/06 11:08:20;;;;;;;45.37;27.07;;;;;;;0.94;100.00;97448.66;6306563;28;20853;-47
2023/12/06 11:12:16;;;;;;;43.27;26.73;;;;;;;1.04;100.00;97448.38;6307421;28;20213;-50
2023/12/06 11:15:38;;;;;;;51.50;30.30;;;;;;;1.07;100.00;97449.78;6306634;28;20561;-50
2023/12/06 11:18:46;;;;;;;54.27;30.43;;;;;;;1.10;100.00;97447.59;6311075;28;21174;-50
2023/12/06 11:21:49;;;;;;;48.73;30.83;;;;;;;1.13;100.00;97449.03;6312667;28;20190;-48
2023/12/06 11:24:51;;;;;;;48.07;28.43;;;;;;;1.19;100.00;97450.94;6297169;28;20198;-52
2023/12/06 11:27:54;;;;;;;40.23;26.37;;;;;;;1.26;100.00;97442.09;6296929;28;20186;-51
2023/12/06 11:31:01;;;;;;;48.73;30.13;;;;;;;1.23;100.00;97442.50;6296833;28;20233;-50
2023/12/06 11:34:12;;;;;;;47.03;29.33;;;;;;;1.18;100.00;97441.41;6302684;28;20198;-54
2023/12/06 11:37:16;;;;;;;46.73;28.87;;;;;;;1.18;100.00;97437.00;6286984;28;20190;-54
2023/12/06 11:40:22;;;;;;;49.13;29.73;;;;;;;1.22;100.00;97434.78;6303326;28;20387;-53
2023/12/06 11:43:33;;;;;;;50.00;30.37;;;;;;;1.21;100.00;97438.41;6304217;28;20248;-51
2023/12/06 11:46:36;;;;;;;49.00;30.47;;;;;;;1.24;100.00;97444.09;6304688;28;20222;-54
2023/12/06 11:49:38;;;;;;;48.70;30.20;;;;;;;1.19;100.00;97443.06;6304649;28;20199;-52
2023/12/06 11:52:52;;;;;;;46.00;29.27;;;;;;;1.18;100.00;97437.00;6305116;28;20297;-54
2023/12/06 11:55:55;;;;;;;51.07;30.13;;;;;;;1.19;100.00;97429.94;6304351;28;20206;-51
2023/12/06 11:58:57;;;;;;;53.97;31.63;;;;;;;1.19;100.00;97441.25;6299863;28;20237;-50
2023/12/06 12:02:00;;;;;;;48.07;30.60;;;;;;;1.24;100.00;97438.06;6296173;28;20194;-51
2023/12/06 12:05:03;;;;;;;49.67;29.87;;;;;;;1.24;100.00;97431.00;6294430;28;20276;-51
2023/12/06 12:08:07;;;;;;;50.17;31.17;;;;;;;1.22;100.00;97432.97;6295586;28;21064;-54
2023/12/06 12:11:10;;;;;;;47.30;30.13;;;;;;;1.28;100.00;97427.00;6298988;28;20273;-50
2023/12/06 12:14:12;;;;;;;53.87;31.30;;;;;;;1.34;100.00;97428.03;6298099;28;20187;-52
2023/12/06 12:17:14;;;;;;;43.53;28.37;;;;;;;1.32;100.00;97410.84;6290106;28;20766;-52
2023/12/06 12:20:16;;;;;;;44.77;28.83;;;;;;;1.27;100.00;97403.53;6300982;28;20255;-54
2023/12/06 12:23:19;;;;;;;49.07;31.27;;;;;;;1.23;100.00;97400.50;6303276;28;20191;-52
2023/12/06 12:26:22;;;;;;;42.63;27.63;;;;;;;1.22;100.00;97384.94;6301799;28;20220;-52
2023/12/06 12:29:24;;;;;;;48.40;30.63;;;;;;;1.17;100.00;97393.38;6301624;28;20199;-53
2023/12/06 12:32:28;;;;;;;44.40;27.27;;;;;;;1.10;100.00;97386.47;6299947;28;20238;-53
2023/12/06 12:35:31;;;;;;;42.83;26.90;;;;;;;1.09;100.00;97390.91;6298219;28;20220;-55
2023/12/06 12:38:34;;;;;;;44.00;28.43;;;;;;;0.99;100.00;97388.59;6299813;28;20201;-53
2023/12/06 12:41:36;;;;;;;44.33;27.87;;;;;;;0.75;100.00;97371.44;6299881;28;20178;-54
2023/12/06 12:44:38;;;;;;;51.43;30.50;;;;;;;0.69;100.00;97381.81;6297459;28;20198;-52
2023/12/06 12:47:41;;;;;;;47.07;29.27;;;;;;;0.58;100.00;97387.56;6298915;28;20222;-51
2023/12/06 12:50:44;;;;;;;44.70;26.97;;;;;;;0.42;100.00;97375.50;6294673;28;20285;-53
2023/12/06 12:53:46;;;;;;;49.13;29.47;;;;;;;0.54;100.00;97402.84;6294418;28;20186;-53
2023/12/06 12:56:49;;;;;;;47.53;31.03;;;;;;;0.44;100.00;97395.31;6302690;28;20218;-52
2023/12/06 12:59:53;;;;;;;52.43;30.83;;;;;;;0.45;100.00;97390.88;6295589;28;20650;-53
2023/12/06 13:02:57;;;;;;;49.53;32.40;;;;;;;0.50;100.00;97401.63;6301793;28;20763;-51
2023/12/06 13:06:00;;;;;;;50.03;30.37;;;;;;;0.48;100.00;97395.72;6301946;28;20198;-53
2023/12/06 13:09:02;;;;;;;45.13;28.83;;;;;;;0.50;100.00;97399.81;6306033;28;20297;-49
2023/12/06 13:12:05;;;;;;;48.27;30.17;;;;;;;0.50;100.00;97399.00;6305843;28;20765;-52
2023/12/06 13:15:08;;;;;;;49.17;30.23;;;;;;;0.62;100.00;97389.63;6305393;28;20668;-55
2023/12/06 13:18:11;;;;;;;43.87;26.57;;;;;;;0.60;100.00;97403.94;6302026;28;20666;-52
2023/12/06 13:21:13;;;;;;;48.27;29.03;;;;;;;0.63;100.00;97388.63;6306860;28;20190;-52
2023/12/06 13:24:16;;;;;;;25.77;15.40;;;;;;;0.67;100.00;97399.56;6303188;28;20572;-53
2023/12/06 13:27:19;;;;;;;17.57;12.23;;;;;;;0.69;100.00;97385.28;6294684;28;20213;-54
2023/12/06 13:30:21;;;;;;;15.37;10.53;;;;;;;0.76;100.00;97383.53;6288900;28;20264;-52
2023/12/06 13:33:24;;;;;;;12.67;8.53;;;;;;;0.71;100.00;97388.53;6296124;28;20206;-53
2023/12/06 13:36:26;;;;;;;12.87;8.70;;;;;;;0.65;100.00;97391.91;6305337;28;20343;-52
2023/12/06 13:39:28;;;;;;;11.70;7.13;;;;;;;0.53;100.00;97372.41;6302215;28;20198;-51
2023/12/06 13:42:30;;;;;;;7.07;5.23;;;;;;;0.59;100.00;97384.78;6305356;28;20194;-52
2023/12/06 13:45:32;;;;;;;6.00;4.77;;;;;;;0.55;100.00;97380.91;6306945;28;20199;-51
2023/12/06 13:48:34;;;;;;;6.93;4.40;;;;;;;0.51;100.00;97379.66;6301251;28;20295;-53
2023/12/06 13:51:37;;;;;;;7.43;4.83;;;;;;;0.52;100.00;97387.31;6308118;28;20828;-52
2023/12/06 13:54:39;;;;;;;7.03;4.83;;;;;;;0.48;100.00;97386.06;6310521;28;20564;-53